Time;durP1;ratioP1;P1;durP2;ratioP2;P2;SDS_P1;SDS_P2;PMS_P1;PMS_P2;Temp;Humidity;BMP_temperature;BMP_pressure;BME280_temperature;BME280_humidity;BME280_pressure;Samples;Min_cycle;Max_cycle;Signal;HPM_P1;HPM_P2
2023/11/14 00:01:26;;;;;;;11.40;3.20;;;10.50;99.90;;;;;;5089156;28;20987;-51
2023/11/14 00:03:53;;;;;;;17.90;3.27;;;10.60;99.90;;;;;;5081898;28;20206;-48
2023/11/14 00:06:20;;;;;;;15.97;3.97;;;10.60;99.90;;;;;;5089382;28;20976;-46
2023/11/14 00:08:47;;;;;;;13.23;3.03;;;10.50;99.90;;;;;;5097605;28;20197;-47
2023/11/14 00:11:14;;;;;;;27.33;4.80;;;10.60;99.90;;;;;;5050140;28;20206;-47
2023/11/14 00:13:41;;;;;;;17.40;3.27;;;10.60;99.90;;;;;;5102081;28;20192;-50
2023/11/14 00:16:08;;;;;;;17.10;3.27;;;10.60;99.90;;;;;;5094647;28;20240;-44
2023/11/14 00:18:37;;;;;;;16.60;3.50;;;10.60;99.90;;;;;;5089788;28;20190;-50
2023/11/14 00:21:04;;;;;;;20.13;3.57;;;10.60;99.90;;;;;;5085703;28;20204;-43
2023/11/14 00:23:31;;;;;;;20.30;3.50;;;10.70;99.90;;;;;;5095917;28;20208;-46
2023/11/14 00:25:58;;;;;;;18.63;4.07;;;10.70;99.90;;;;;;5064572;28;20671;-48
2023/11/14 00:28:24;;;;;;;19.30;3.33;;;10.80;99.90;;;;;;5097382;28;20887;-50
2023/11/14 00:30:51;;;;;;;17.80;3.10;;;10.80;99.90;;;;;;5101384;28;20258;-50
2023/11/14 00:33:18;;;;;;;17.70;3.50;;;10.80;99.90;;;;;;5089631;28;20274;-44
2023/11/14 00:35:46;;;;;;;18.90;3.57;;;10.80;99.90;;;;;;5085159;28;20247;-45
2023/11/14 00:38:13;;;;;;;22.70;4.17;;;10.80;99.90;;;;;;5092971;28;20196;-44
2023/11/14 00:40:40;;;;;;;15.67;3.70;;;10.80;99.90;;;;;;5090643;28;20213;-46
2023/11/14 00:43:07;;;;;;;17.20;3.50;;;10.80;99.90;;;;;;5068922;28;20205;-44
2023/11/14 00:45:34;;;;;;;19.13;3.17;;;10.80;99.90;;;;;;5095927;28;20288;-47
2023/11/14 00:48:00;;;;;;;16.47;4.00;;;10.80;99.90;;;;;;5093068;28;20220;-44
2023/11/14 00:50:27;;;;;;;11.13;3.30;;;10.80;99.90;;;;;;5082079;28;20197;-47
2023/11/14 00:52:55;;;;;;;19.00;3.93;;;10.80;99.90;;;;;;5102525;28;20216;-49
2023/11/14 00:55:22;;;;;;;22.43;3.60;;;10.80;99.90;;;;;;5079570;28;20266;-46
2023/11/14 00:57:49;;;;;;;14.77;3.10;;;10.80;99.90;;;;;;5064844;28;20321;-51
2023/11/14 01:00:17;;;;;;;13.07;3.63;;;10.70;99.90;;;;;;5095071;28;20213;-46
2023/11/14 01:02:45;;;;;;;19.87;3.70;;;10.70;99.90;;;;;;5094714;28;20664;-46
2023/11/14 01:05:12;;;;;;;17.47;4.17;;;10.70;99.90;;;;;;5079223;28;20186;-43
2023/11/14 01:07:39;;;;;;;11.07;2.63;;;10.70;99.90;;;;;;5096523;28;20220;-46
2023/11/14 01:10:10;;;;;;;18.97;3.77;;;10.60;99.90;;;;;;5088283;28;20193;-44
2023/11/14 01:12:36;;;;;;;14.80;3.30;;;10.60;99.90;;;;;;5092950;28;20208;-45
2023/11/14 01:15:04;;;;;;;14.47;3.20;;;10.60;99.90;;;;;;5072023;28;20207;-42
2023/11/14 01:17:31;;;;;;;12.30;3.63;;;10.60;99.90;;;;;;5103725;28;20223;-44
2023/11/14 01:19:58;;;;;;;20.33;4.27;;;10.60;99.90;;;;;;5098861;27;20213;-43
2023/11/14 01:22:25;;;;;;;19.87;4.13;;;10.60;99.90;;;;;;5084699;28;20792;-43
2023/11/14 01:24:52;;;;;;;17.30;4.13;;;10.60;99.90;;;;;;5104200;28;20621;-42
2023/11/14 01:27:20;;;;;;;20.83;4.50;;;10.60;99.90;;;;;;5087894;27;20252;-47
2023/11/14 01:29:47;;;;;;;15.07;3.57;;;10.60;99.90;;;;;;5078933;27;20278;-47
2023/11/14 01:32:14;;;;;;;19.37;3.87;;;10.60;99.90;;;;;;5100237;28;20934;-49
2023/11/14 01:34:42;;;;;;;25.50;4.77;;;10.60;99.90;;;;;;5093416;28;20220;-50
2023/11/14 01:37:09;;;;;;;15.87;3.50;;;10.60;99.90;;;;;;5084746;28;20201;-42
2023/11/14 01:39:36;;;;;;;15.57;3.07;;;10.60;99.90;;;;;;5104801;28;20224;-45
2023/11/14 01:42:03;;;;;;;15.60;3.63;;;10.60;99.90;;;;;;5093794;28;20681;-45
2023/11/14 01:44:31;;;;;;;20.50;4.17;;;10.60;99.90;;;;;;5060393;27;20247;-44
2023/11/14 01:46:58;;;;;;;18.03;3.77;;;10.60;99.90;;;;;;5104096;27;21083;-50
2023/11/14 01:49:25;;;;;;;20.70;3.60;;;10.60;99.90;;;;;;5083524;28;20207;-47
2023/11/14 01:51:54;;;;;;;19.93;3.60;;;10.70;99.90;;;;;;5103434;27;20190;-47
2023/11/14 01:54:21;;;;;;;14.73;3.70;;;10.70;99.90;;;;;;5087605;28;20555;-45
2023/11/14 01:56:49;;;;;;;22.23;3.33;;;10.60;99.90;;;;;;5099628;28;20213;-48
2023/11/14 01:59:16;;;;;;;15.73;3.03;;;10.60;99.90;;;;;;5087214;28;20563;-46
2023/11/14 02:01:46;;;;;;;17.40;3.07;;;10.60;99.90;;;;;;5064409;28;20208;-42
2023/11/14 02:04:17;;;;;;;14.93;2.67;;;10.60;99.90;;;;;;5087843;28;20678;-48
2023/11/14 02:06:43;;;;;;;14.27;3.00;;;10.60;99.90;;;;;;5102004;28;20220;-42
2023/11/14 02:09:11;;;;;;;20.63;3.40;;;10.70;99.90;;;;;;5083112;28;20253;-46
2023/11/14 02:11:37;;;;;;;16.37;3.63;;;10.70;99.90;;;;;;5102829;28;20228;-45
2023/11/14 02:14:04;;;;;;;13.40;3.60;;;10.60;99.90;;;;;;5092360;28;20922;-45
2023/11/14 02:16:46;;;;;;;15.13;3.40;;;10.70;99.90;;;;;;5073840;27;20570;-44
2023/11/14 02:19:13;;;;;;;14.37;3.07;;;10.70;99.90;;;;;;5090737;28;20942;-46
2023/11/14 02:21:41;;;;;;;16.40;3.20;;;10.70;99.90;;;;;;5091533;28;20205;-43
2023/11/14 02:24:13;;;;;;;18.83;2.70;;;10.70;99.90;;;;;;5082534;28;20287;-45
2023/11/14 02:26:42;;;;;;;20.07;3.40;;;10.70;99.90;;;;;;5100489;27;20309;-44
2023/11/14 02:29:09;;;;;;;15.67;2.83;;;10.70;99.90;;;;;;5090712;28;20255;-46
2023/11/14 02:31:36;;;;;;;15.87;3.30;;;10.70;99.90;;;;;;5067524;28;20746;-42
2023/11/14 02:34:04;;;;;;;14.43;2.63;;;10.60;99.90;;;;;;5094367;28;22076;-45
2023/11/14 02:36:31;;;;;;;19.87;3.33;;;10.60;99.90;;;;;;5092375;28;20337;-41
2023/11/14 02:38:58;;;;;;;17.60;3.67;;;10.60;99.90;;;;;;5101071;28;20194;-45
2023/11/14 02:41:25;;;;;;;11.83;2.97;;;10.60;99.90;;;;;;5081891;28;20290;-46
2023/11/14 02:43:53;;;;;;;13.23;3.57;;;10.60;99.90;;;;;;5104763;27;20217;-46
2023/11/14 02:46:20;;;;;;;14.73;3.03;;;10.70;99.90;;;;;;5067194;28;20221;-50
2023/11/14 02:48:47;;;;;;;17.27;3.90;;;10.70;99.90;;;;;;5098820;28;20190;-43
2023/11/14 02:51:13;;;;;;;15.50;3.10;;;10.70;99.90;;;;;;5085268;28;20249;-47
2023/11/14 02:53:40;;;;;;;14.40;2.90;;;10.80;99.90;;;;;;5101709;28;20225;-44
2023/11/14 02:56:07;;;;;;;17.27;3.33;;;10.80;99.90;;;;;;5082349;28;20641;-45
2023/11/14 02:58:34;;;;;;;16.63;3.27;;;10.90;99.90;;;;;;5098700;28;20201;-43
2023/11/14 03:01:03;;;;;;;13.00;3.30;;;11.00;99.90;;;;;;5094830;28;20229;-44
2023/11/14 03:03:30;;;;;;;13.73;2.93;;;11.10;99.90;;;;;;5071663;28;20213;-43
2023/11/14 03:05:59;;;;;;;11.57;3.00;;;11.10;99.90;;;;;;5082165;28;20536;-47
2023/11/14 03:08:27;;;;;;;15.43;3.17;;;11.20;99.90;;;;;;5104155;28;20186;-46
2023/11/14 03:10:55;;;;;;;17.10;2.97;;;11.10;99.90;;;;;;5083212;27;20293;-45
2023/11/14 03:13:22;;;;;;;10.37;2.07;;;11.20;99.90;;;;;;5099112;28;20193;-45
2023/11/14 03:15:48;;;;;;;16.17;3.27;;;11.20;99.90;;;;;;5089790;28;20718;-45
2023/11/14 03:18:17;;;;;;;14.10;3.00;;;11.20;99.90;;;;;;5079282;27;20201;-45
2023/11/14 03:20:44;;;;;;;13.13;2.80;;;11.20;99.90;;;;;;5093304;27;20223;-44
2023/11/14 03:23:11;;;;;;;17.50;3.57;;;11.10;99.90;;;;;;5094464;28;20205;-48
2023/11/14 03:25:38;;;;;;;7.23;2.80;;;11.00;99.90;;;;;;5106226;27;20189;-43
2023/11/14 03:28:05;;;;;;;9.33;2.33;;;11.00;99.90;;;;;;5078717;28;20266;-45
2023/11/14 03:30:32;;;;;;;11.60;2.47;;;11.00;99.90;;;;;;5092488;27;20201;-45
2023/11/14 03:32:59;;;;;;;13.03;2.43;;;10.90;99.90;;;;;;5069095;28;22247;-47
2023/11/14 03:35:27;;;;;;;14.17;2.70;;;10.90;99.90;;;;;;5103221;28;20219;-45
2023/11/14 03:37:55;;;;;;;16.13;2.47;;;10.80;99.90;;;;;;5090143;28;20996;-49
2023/11/14 03:40:22;;;;;;;14.30;2.50;;;10.80;99.90;;;;;;5101939;28;20213;-50
2023/11/14 03:42:50;;;;;;;12.67;2.83;;;10.80;99.90;;;;;;5077302;28;20197;-44
2023/11/14 03:45:16;;;;;;;8.03;2.67;;;10.80;99.90;;;;;;5090958;28;20315;-49
2023/11/14 03:47:43;;;;;;;15.50;3.07;;;10.80;99.90;;;;;;5073039;27;20213;-46
2023/11/14 03:50:12;;;;;;;11.37;2.93;;;10.80;99.90;;;;;;5101495;28;20193;-45
2023/11/14 03:52:40;;;;;;;13.93;2.50;;;10.80;99.90;;;;;;5094135;28;20189;-44
2023/11/14 03:55:07;;;;;;;16.10;2.80;;;10.80;99.90;;;;;;5100267;28;20201;-46
2023/11/14 03:57:35;;;;;;;7.20;1.90;;;10.90;99.90;;;;;;5094241;28;20217;-42
2023/11/14 04:00:04;;;;;;;16.30;2.80;;;10.90;99.90;;;;;;5087950;28;20317;-48
2023/11/14 04:02:39;;;;;;;16.67;2.87;;;10.90;99.90;;;;;;5070720;28;20427;-42
2023/11/14 04:05:07;;;;;;;11.63;2.37;;;11.00;99.90;;;;;;5087107;28;20210;-51
2023/11/14 04:07:34;;;;;;;13.43;3.63;;;11.00;99.90;;;;;;5095424;27;20864;-42
2023/11/14 04:10:02;;;;;;;14.40;2.73;;;11.00;99.90;;;;;;5095119;28;20196;-45
2023/11/14 04:12:29;;;;;;;13.37;3.53;;;10.90;99.90;;;;;;5102120;28;20274;-45
2023/11/14 04:14:56;;;;;;;11.43;2.73;;;10.90;99.90;;;;;;5082338;28;20193;-48
2023/11/14 04:17:23;;;;;;;14.60;3.07;;;10.90;99.90;;;;;;5086639;28;20240;-47
2023/11/14 04:19:50;;;;;;;10.10;2.00;;;10.80;99.90;;;;;;5061245;28;20809;-47
2023/11/14 04:22:17;;;;;;;17.83;2.60;;;10.80;99.90;;;;;;5101367;28;20250;-48
2023/11/14 04:24:44;;;;;;;17.73;2.90;;;10.80;99.90;;;;;;5089907;28;20205;-43
2023/11/14 04:27:12;;;;;;;12.77;2.67;;;10.80;99.90;;;;;;5102771;28;20209;-47
2023/11/14 04:29:39;;;;;;;12.57;2.77;;;10.80;99.90;;;;;;5089732;28;20232;-44
2023/11/14 04:32:06;;;;;;;9.10;2.13;;;10.80;99.90;;;;;;5079540;28;20200;-42
2023/11/14 04:34:34;;;;;;;8.90;2.30;;;10.70;99.90;;;;;;5061846;28;20228;-49
2023/11/14 04:37:01;;;;;;;12.00;2.77;;;10.70;99.90;;;;;;5091945;28;20289;-48
2023/11/14 04:39:29;;;;;;;13.00;2.80;;;10.70;99.90;;;;;;5088700;28;20212;-46
2023/11/14 04:41:56;;;;;;;10.17;2.60;;;10.70;99.90;;;;;;5102524;28;20286;-49
2023/11/14 04:44:24;;;;;;;20.30;3.50;;;10.70;99.90;;;;;;5097093;28;20238;-45
2023/11/14 04:46:52;;;;;;;13.13;3.10;;;10.70;99.90;;;;;;5095725;27;20221;-45
2023/11/14 04:49:19;;;;;;;11.30;2.60;;;10.60;99.90;;;;;;5092295;28;20193;-43
2023/11/14 04:51:45;;;;;;;20.67;3.30;;;10.60;99.90;;;;;;5076018;28;20205;-47
2023/11/14 04:54:12;;;;;;;12.33;2.73;;;10.60;99.90;;;;;;5098990;28;20200;-44
2023/11/14 04:56:39;;;;;;;11.03;2.87;;;10.60;99.90;;;;;;5103997;27;20515;-48
2023/11/14 04:59:06;;;;;;;12.67;2.50;;;10.60;99.90;;;;;;5105520;28;20205;-43
2023/11/14 05:01:34;;;;;;;11.70;2.33;;;10.60;99.90;;;;;;5081023;28;20221;-49
2023/11/14 05:04:01;;;;;;;9.77;2.47;;;10.60;99.90;;;;;;5095852;28;20611;-47
2023/11/14 05:06:31;;;;;;;10.77;3.37;;;10.60;99.90;;;;;;5059949;27;20266;-49
2023/11/14 05:08:58;;;;;;;14.57;2.93;;;10.60;99.90;;;;;;5098544;28;20220;-49
2023/11/14 05:11:25;;;;;;;7.93;2.63;;;10.60;99.90;;;;;;5091884;28;20903;-45
2023/11/14 05:13:52;;;;;;;9.33;2.40;;;10.60;99.90;;;;;;5098316;28;20204;-45
2023/11/14 05:16:19;;;;;;;15.07;2.83;;;10.60;99.90;;;;;;5086828;27;20209;-42
2023/11/14 05:18:47;;;;;;;19.47;2.80;;;10.60;99.90;;;;;;5094945;27;20574;-45
2023/11/14 05:21:14;;;;;;;17.77;3.20;;;10.60;99.90;;;;;;5071143;27;20290;-42
2023/11/14 05:23:41;;;;;;;18.07;3.77;;;10.50;99.90;;;;;;5098520;27;20197;-46
2023/11/14 05:26:08;;;;;;;11.10;2.47;;;10.50;99.90;;;;;;5096026;27;20703;-46
2023/11/14 05:28:37;;;;;;;10.27;2.97;;;10.40;99.90;;;;;;5104106;27;20209;-47
2023/11/14 05:31:04;;;;;;;11.30;2.60;;;10.40;99.90;;;;;;5095768;28;20194;-42
2023/11/14 05:33:31;;;;;;;9.07;2.33;;;10.40;99.90;;;;;;5081343;28;20204;-47
2023/11/14 05:35:59;;;;;;;17.67;2.60;;;10.30;99.90;;;;;;5096428;28;20189;-42
2023/11/14 05:38:27;;;;;;;11.07;2.73;;;10.30;99.90;;;;;;5059661;27;20213;-48
2023/11/14 05:40:54;;;;;;;14.17;2.70;;;10.30;99.90;;;;;;5095210;28;20201;-44
2023/11/14 05:43:20;;;;;;;13.03;2.37;;;10.30;99.90;;;;;;5091192;28;20193;-47
2023/11/14 05:45:50;;;;;;;15.37;2.27;;;10.30;99.90;;;;;;5102540;28;20209;-43
2023/11/14 05:48:19;;;;;;;12.37;2.57;;;10.30;99.90;;;;;;5082381;28;20201;-48
2023/11/14 05:50:46;;;;;;;12.23;2.50;;;10.40;99.90;;;;;;5099895;27;20197;-46
2023/11/14 05:53:15;;;;;;;7.93;1.80;;;10.40;99.90;;;;;;5069118;27;20197;-50
2023/11/14 05:55:43;;;;;;;10.90;3.00;;;10.40;99.90;;;;;;5098482;28;20201;-44
2023/11/14 05:58:10;;;;;;;12.83;2.20;;;10.40;99.90;;;;;;5092730;28;20216;-47
2023/11/14 06:00:36;;;;;;;11.13;2.47;;;10.40;99.90;;;;;;5103167;28;20747;-47
2023/11/14 06:03:04;;;;;;;9.23;2.00;;;10.40;99.90;;;;;;5096639;28;20204;-43
2023/11/14 06:05:31;;;;;;;10.43;2.30;;;10.40;99.90;;;;;;5090593;28;20203;-51
2023/11/14 06:07:58;;;;;;;8.67;2.07;;;10.50;99.90;;;;;;5089917;27;20229;-44
2023/11/14 06:10:26;;;;;;;6.30;2.20;;;10.50;99.90;;;;;;5070259;27;20407;-49
2023/11/14 06:12:53;;;;;;;9.63;1.40;;;10.50;99.90;;;;;;5091601;27;20221;-44
2023/11/14 06:15:19;;;;;;;6.20;1.47;;;10.50;99.90;;;;;;5101109;27;20201;-49
2023/11/14 06:17:46;;;;;;;6.23;1.67;;;10.50;99.90;;;;;;5104516;28;20763;-45
2023/11/14 06:20:14;;;;;;;5.57;1.50;;;10.50;99.90;;;;;;5083447;28;20201;-46
2023/11/14 06:22:41;;;;;;;6.87;1.17;;;10.50;99.90;;;;;;5092845;28;20221;-47
2023/11/14 06:25:09;;;;;;;7.43;1.70;;;10.50;99.90;;;;;;5065581;28;20206;-42
2023/11/14 06:27:37;;;;;;;9.80;1.40;;;10.60;99.90;;;;;;5081524;28;20248;-47
2023/11/14 06:30:06;;;;;;;6.30;1.63;;;10.50;99.90;;;;;;5101669;28;20199;-43
2023/11/14 06:32:33;;;;;;;7.23;1.37;;;10.50;99.90;;;;;;5104797;27;20991;-47
2023/11/14 06:35:00;;;;;;;9.07;1.43;;;10.50;99.90;;;;;;5087407;27;20313;-44
2023/11/14 06:37:27;;;;;;;3.80;1.10;;;10.50;99.90;;;;;;5085829;27;20222;-44
2023/11/14 06:39:55;;;;;;;12.00;2.00;;;10.40;99.90;;;;;;5068393;28;20250;-45
2023/11/14 06:42:22;;;;;;;7.00;1.70;;;10.40;99.90;;;;;;5093509;28;20221;-43
2023/11/14 06:44:51;;;;;;;10.93;2.10;;;10.40;99.90;;;;;;5099598;27;20209;-45
2023/11/14 06:47:18;;;;;;;10.70;1.80;;;10.40;99.90;;;;;;5108096;27;20262;-44
2023/11/14 06:49:45;;;;;;;11.93;1.83;;;10.40;99.90;;;;;;5086458;27;21007;-46
2023/11/14 06:52:12;;;;;;;10.27;1.57;;;10.40;99.90;;;;;;5091805;28;20198;-47
2023/11/14 06:54:39;;;;;;;10.63;1.77;;;10.30;99.90;;;;;;5065282;28;20258;-47
2023/11/14 06:57:09;;;;;;;6.50;1.90;;;10.40;99.90;;;;;;5091533;27;20226;-48
2023/11/14 06:59:36;;;;;;;10.27;2.73;;;10.40;99.90;;;;;;5095624;27;20280;-43
2023/11/14 07:02:05;;;;;;;10.37;1.67;;;10.40;99.90;;;;;;5087313;28;20221;-45
2023/11/14 07:04:32;;;;;;;5.23;2.00;;;10.40;99.90;;;;;;5097514;27;20779;-47
2023/11/14 07:07:00;;;;;;;8.67;2.40;;;10.40;99.90;;;;;;5095092;27;20217;-45
2023/11/14 07:09:26;;;;;;;12.97;2.50;;;10.40;99.90;;;;;;5059902;27;21692;-45
2023/11/14 07:11:54;;;;;;;9.57;1.93;;;10.40;99.90;;;;;;5111607;27;20243;-47
2023/11/14 07:14:24;;;;;;;10.53;2.23;;;10.30;99.90;;;;;;5096750;28;20205;-45
2023/11/14 07:16:51;;;;;;;9.10;2.23;;;10.30;99.90;;;;;;5100016;27;20231;-44
2023/11/14 07:19:19;;;;;;;10.97;2.77;;;10.40;99.90;;;;;;5090451;28;20201;-45
2023/11/14 07:21:47;;;;;;;10.37;2.80;;;10.40;99.90;;;;;;5064177;28;20296;-44
2023/11/14 07:24:14;;;;;;;11.17;2.37;;;10.40;99.90;;;;;;5077982;28;20201;-46
2023/11/14 07:26:42;;;;;;;11.17;2.63;;;10.40;99.90;;;;;;5058384;28;20221;-44
2023/11/14 07:29:12;;;;;;;5.77;2.33;;;10.40;99.90;;;;;;5086252;27;20205;-45
2023/11/14 07:31:47;;;;;;;11.77;2.63;;;10.40;99.90;;;;;;5078306;27;20543;-46
2023/11/14 07:34:14;;;;;;;12.87;2.60;;;10.40;99.90;;;;;;5066714;28;20210;-46
2023/11/14 07:36:41;;;;;;;13.63;3.57;;;10.50;99.90;;;;;;5054807;28;20234;-44
2023/11/14 07:39:08;;;;;;;13.20;2.60;;;10.40;99.90;;;;;;5028257;28;20291;-46
2023/11/14 07:41:35;;;;;;;13.47;3.20;;;10.40;99.90;;;;;;5012893;28;20266;-46
2023/11/14 07:44:06;;;;;;;13.00;2.87;;;10.50;99.90;;;;;;5038432;28;20263;-48
2023/11/14 07:46:33;;;;;;;12.93;2.80;;;10.40;99.90;;;;;;5045801;28;20465;-45
2023/11/14 07:49:01;;;;;;;12.30;2.60;;;10.40;99.90;;;;;;5046005;28;20211;-47
2023/11/14 07:51:28;;;;;;;13.53;3.20;;;10.50;99.90;;;;;;5054548;28;20260;-44
2023/11/14 07:53:55;;;;;;;12.43;2.60;;;10.50;99.90;;;;;;5039242;28;20666;-47
2023/11/14 07:56:24;;;;;;;12.30;2.43;;;10.50;99.90;;;;;;5007017;28;20234;-44
2023/11/14 07:58:51;;;;;;;15.07;2.60;;;10.50;99.90;;;;;;5048939;28;20206;-45
2023/11/14 08:01:18;;;;;;;7.77;2.33;;;10.40;99.90;;;;;;5044008;28;20202;-45
2023/11/14 08:03:45;;;;;;;13.60;2.90;;;10.40;99.90;;;;;;5045882;28;20205;-45
2023/11/14 08:06:13;;;;;;;16.17;2.93;;;10.40;99.90;;;;;;5054547;28;20967;-46
2023/11/14 08:08:42;;;;;;;14.17;3.00;;;10.50;99.90;;;;;;5040404;28;20234;-44
2023/11/14 08:11:11;;;;;;;11.07;3.00;;;10.50;99.90;;;;;;5038374;28;20237;-48
2023/11/14 08:13:38;;;;;;;13.57;2.83;;;10.50;99.90;;;;;;5036985;28;20211;-45
2023/11/14 08:16:05;;;;;;;9.97;3.37;;;10.50;99.90;;;;;;5043473;28;20264;-46
2023/11/14 08:18:32;;;;;;;12.10;2.60;;;10.50;99.90;;;;;;5043090;28;20252;-43
2023/11/14 08:20:59;;;;;;;13.47;3.10;;;10.60;99.90;;;;;;5041306;28;20199;-46
2023/11/14 08:23:28;;;;;;;13.33;2.83;;;10.60;99.90;;;;;;5037141;28;20207;-43
2023/11/14 08:25:55;;;;;;;14.07;3.27;;;10.60;99.90;;;;;;5034632;28;20215;-43
2023/11/14 08:28:22;;;;;;;15.77;2.73;;;10.60;99.90;;;;;;5003242;28;20215;-45
2023/11/14 08:30:50;;;;;;;14.87;2.87;;;10.60;99.90;;;;;;5048354;28;20629;-47
2023/11/14 08:33:17;;;;;;;19.47;3.93;;;10.60;99.90;;;;;;5039013;28;20206;-44
2023/11/14 08:35:44;;;;;;;17.17;2.77;;;10.60;99.90;;;;;;5044673;28;20229;-44
2023/11/14 08:38:12;;;;;;;22.07;4.03;;;10.60;99.90;;;;;;5035517;28;20218;-48
2023/11/14 08:40:40;;;;;;;14.40;3.43;;;10.60;99.90;;;;;;5044261;28;20282;-45
2023/11/14 08:43:07;;;;;;;13.87;3.33;;;10.60;99.90;;;;;;4998003;28;20302;-46
2023/11/14 08:45:35;;;;;;;24.80;4.10;;;10.70;99.90;;;;;;5035763;28;20244;-43
2023/11/14 08:48:03;;;;;;;16.17;3.43;;;10.70;99.90;;;;;;5038553;28;20230;-50
2023/11/14 08:50:30;;;;;;;20.80;3.50;;;10.70;99.90;;;;;;5038005;28;20215;-45
2023/11/14 08:52:57;;;;;;;17.23;3.30;;;10.80;99.90;;;;;;5033485;28;20258;-43
2023/11/14 08:55:24;;;;;;;16.93;2.63;;;10.80;99.90;;;;;;5025243;28;20283;-41
2023/11/14 08:57:52;;;;;;;19.47;3.30;;;10.90;99.90;;;;;;5035833;28;20231;-41
2023/11/14 09:00:19;;;;;;;13.23;3.87;;;10.90;99.90;;;;;;5000590;28;20801;-43
2023/11/14 09:02:46;;;;;;;14.63;2.87;;;11.00;99.90;;;;;;5032992;28;20278;-42
2023/11/14 09:05:13;;;;;;;17.57;3.37;;;11.00;99.90;;;;;;5026200;28;20203;-44
2023/11/14 09:07:40;;;;;;;17.20;3.00;;;11.00;99.90;;;;;;5043522;28;20219;-45
2023/11/14 09:10:08;;;;;;;17.27;3.10;;;11.10;99.90;;;;;;5028313;28;20195;-47
2023/11/14 09:12:34;;;;;;;15.27;2.97;;;11.10;99.90;;;;;;5032590;28;20215;-43
2023/11/14 09:15:05;;;;;;;14.40;2.87;;;11.20;99.90;;;;;;5004483;28;20281;-48
2023/11/14 09:17:33;;;;;;;13.20;2.77;;;11.20;99.90;;;;;;5035361;28;20259;-43
2023/11/14 09:20:00;;;;;;;12.93;2.93;;;11.30;99.90;;;;;;5031763;28;20207;-49
2023/11/14 09:22:30;;;;;;;13.13;3.07;;;11.30;99.90;;;;;;5033783;28;20295;-43
2023/11/14 09:24:57;;;;;;;8.87;2.70;;;11.20;99.90;;;;;;5025745;28;20209;-50
2023/11/14 09:27:24;;;;;;;14.83;3.10;;;11.20;99.90;;;;;;5034849;28;20211;-45
2023/11/14 09:29:51;;;;;;;11.47;2.90;;;11.10;99.90;;;;;;5004332;28;20572;-46
2023/11/14 09:32:21;;;;;;;16.67;3.07;;;11.10;99.90;;;;;;5031639;28;20223;-42
2023/11/14 09:34:48;;;;;;;12.47;2.70;;;11.00;99.90;;;;;;5043161;28;20195;-42
2023/11/14 09:37:15;;;;;;;15.80;3.63;;;11.00;99.90;;;;;;5024366;28;20346;-48
2023/11/14 09:39:43;;;;;;;11.50;2.60;;;11.00;99.90;;;;;;5023573;28;20257;-42
2023/11/14 09:42:11;;;;;;;11.57;2.27;;;11.00;99.90;;;;;;5026274;28;20202;-47
2023/11/14 09:44:38;;;;;;;16.50;3.30;;;11.10;99.90;;;;;;5030880;28;20203;-42
2023/11/14 09:47:08;;;;;;;13.00;2.33;;;11.20;99.90;;;;;;5004359;28;20215;-42
2023/11/14 09:49:38;;;;;;;12.47;2.90;;;11.20;99.90;;;;;;5043087;28;20214;-45
2023/11/14 09:52:06;;;;;;;14.50;3.23;;;11.30;99.90;;;;;;5028403;28;20207;-42
2023/11/14 09:54:34;;;;;;;14.13;3.07;;;11.30;99.90;;;;;;5041572;28;20191;-44
2023/11/14 09:57:04;;;;;;;7.67;2.33;;;11.30;99.90;;;;;;5024906;28;20227;-41
2023/11/14 09:59:33;;;;;;;17.13;2.53;;;11.40;99.90;;;;;;5033157;28;20872;-44
2023/11/14 10:02:00;;;;;;;14.53;3.40;;;11.40;99.90;;;;;;5005091;28;20208;-42
2023/11/14 10:04:27;;;;;;;12.70;2.50;;;11.40;99.90;;;;;;5026254;28;20254;-44
2023/11/14 10:06:56;;;;;;;11.57;2.50;;;11.40;99.90;;;;;;5033333;28;20591;-42
2023/11/14 10:09:25;;;;;;;9.90;2.50;;;11.40;99.90;;;;;;5032721;28;20191;-42
2023/11/14 10:11:53;;;;;;;11.93;2.23;;;11.50;99.90;;;;;;5026609;28;20665;-43
2023/11/14 10:14:19;;;;;;;12.73;2.47;;;11.50;99.90;;;;;;5023712;28;20200;-46
2023/11/14 10:16:57;;;;;;;11.20;2.80;;;11.60;99.90;;;;;;5015377;28;20232;-46
2023/11/14 10:19:23;;;;;;;13.30;3.13;;;11.60;99.90;;;;;;5031765;28;20265;-43
2023/11/14 10:21:51;;;;;;;13.17;2.77;;;11.70;99.90;;;;;;5034041;28;20203;-45
2023/11/14 10:24:19;;;;;;;15.10;2.90;;;11.70;99.90;;;;;;5033177;28;20183;-43
2023/11/14 10:26:52;;;;;;;15.67;3.13;;;11.70;99.90;;;;;;5029056;28;20265;-43
2023/11/14 10:29:20;;;;;;;13.73;3.43;;;11.70;99.90;;;;;;5027655;28;20274;-45
2023/11/14 10:31:48;;;;;;;16.50;3.07;;;11.70;99.90;;;;;;5035654;28;20219;-42
2023/11/14 10:34:34;;;;;;;14.03;2.43;;;11.70;99.90;;;;;;5001174;28;20294;-43
2023/11/14 10:37:02;;;;;;;13.37;2.40;;;11.70;99.90;;;;;;5031191;28;20238;-43
2023/11/14 10:39:30;;;;;;;20.30;3.43;;;11.80;99.90;;;;;;5033360;28;20214;-44
2023/11/14 10:42:10;;;;;;;13.50;2.57;;;11.80;99.90;;;;;;5029638;28;20597;-48
2023/11/14 10:44:38;;;;;;;10.10;2.57;;;11.80;99.90;;;;;;5038111;28;20245;-44
2023/11/14 10:47:07;;;;;;;10.03;2.67;;;11.80;99.90;;;;;;5038569;28;20298;-45
2023/11/14 10:49:45;;;;;;;14.30;2.67;;;11.90;99.90;;;;;;5025864;28;20665;-42
2023/11/14 10:52:14;;;;;;;8.93;2.70;;;12.00;99.90;;;;;;5032820;28;20304;-44
2023/11/14 10:54:43;;;;;;;13.87;2.73;;;12.10;99.90;;;;;;5041734;28;20513;-42
2023/11/14 10:57:11;;;;;;;10.80;2.90;;;12.20;99.90;;;;;;5030112;28;20324;-50
2023/11/14 10:59:39;;;;;;;9.93;2.63;;;12.20;99.90;;;;;;5018480;28;20308;-44
2023/11/14 11:02:07;;;;;;;15.27;2.70;;;12.30;99.90;;;;;;5035264;28;20195;-49
2023/11/14 11:04:34;;;;;;;7.97;1.93;;;12.30;99.90;;;;;;5014285;28;20208;-49
2023/11/14 11:07:01;;;;;;;10.17;2.33;;;12.30;99.90;;;;;;5028937;28;20909;-51
2023/11/14 11:09:28;;;;;;;6.57;1.77;;;12.30;99.90;;;;;;5036418;28;20192;-42
2023/11/14 11:11:59;;;;;;;6.67;2.77;;;12.30;99.90;;;;;;5039047;28;20253;-46
2023/11/14 11:14:26;;;;;;;10.67;2.27;;;12.30;99.90;;;;;;5021684;28;20195;-41
2023/11/14 11:16:53;;;;;;;11.50;2.83;;;12.30;99.90;;;;;;5029865;28;20230;-49
2023/11/14 11:19:28;;;;;;;9.03;2.07;;;12.30;99.90;;;;;;4996912;28;20211;-44
2023/11/14 11:22:09;;;;;;;11.27;2.10;;;12.30;99.90;;;;;;5026960;28;20205;-43
2023/11/14 11:24:36;;;;;;;10.10;2.23;;;12.30;99.90;;;;;;5024868;28;20218;-43
2023/11/14 11:27:22;;;;;;;10.43;2.43;;;12.30;99.90;;;;;;5035216;28;20304;-45
2023/11/14 11:29:52;;;;;;;11.03;2.50;;;12.30;99.90;;;;;;5021653;28;20290;-46
2023/11/14 11:32:31;;;;;;;13.90;2.60;;;12.30;99.90;;;;;;5033267;28;20624;-45
2023/11/14 11:35:23;;;;;;;6.77;1.77;;;12.30;99.90;;;;;;4997365;28;20214;-47
2023/11/14 11:37:51;;;;;;;5.40;2.10;;;12.30;99.90;;;;;;5029713;28;20231;-42
2023/11/14 11:40:21;;;;;;;6.03;1.90;;;12.30;99.90;;;;;;5040879;28;20207;-49
2023/11/14 11:42:49;;;;;;;11.17;2.77;;;12.30;99.90;;;;;;5031467;28;20626;-42
2023/11/14 11:45:33;;;;;;;10.40;2.20;;;12.30;99.90;;;;;;5024100;28;20273;-43
2023/11/14 11:48:02;;;;;;;12.40;2.00;;;12.30;99.90;;;;;;5031804;28;20323;-45
2023/11/14 11:50:30;;;;;;;12.50;2.83;;;12.30;99.90;;;;;;5019339;28;20285;-45
2023/11/14 11:53:05;;;;;;;13.10;3.10;;;12.30;99.90;;;;;;5036339;28;20254;-43
2023/11/14 11:55:32;;;;;;;7.70;2.20;;;12.20;99.90;;;;;;5037318;28;20684;-46
2023/11/14 11:58:05;;;;;;;12.73;2.63;;;12.20;99.90;;;;;;5036181;28;20215;-49
2023/11/14 12:00:33;;;;;;;9.50;2.00;;;12.20;99.90;;;;;;5033140;28;20195;-42
2023/11/14 12:03:00;;;;;;;10.53;2.10;;;12.10;99.90;;;;;;5030465;28;20504;-46
2023/11/14 12:05:28;;;;;;;13.63;2.33;;;12.20;99.90;;;;;;5032405;28;20741;-43
2023/11/14 12:07:57;;;;;;;13.57;2.20;;;12.30;99.90;;;;;;5003485;28;20336;-41
2023/11/14 12:10:24;;;;;;;10.10;2.53;;;12.40;99.90;;;;;;5032451;28;20337;-45
2023/11/14 12:12:56;;;;;;;9.73;2.10;;;12.40;99.90;;;;;;5031591;28;20737;-44
2023/11/14 12:15:25;;;;;;;7.40;2.00;;;12.40;99.90;;;;;;5026471;28;20191;-44
2023/11/14 12:17:54;;;;;;;10.10;2.17;;;12.30;99.90;;;;;;5029738;28;20333;-48
2023/11/14 12:20:22;;;;;;;9.30;2.23;;;12.30;99.90;;;;;;5041996;28;20192;-44
2023/11/14 12:22:50;;;;;;;5.43;1.80;;;12.30;99.90;;;;;;4996736;28;20257;-48
2023/11/14 12:25:19;;;;;;;12.40;1.87;;;12.30;99.90;;;;;;5027277;28;20199;-42
2023/11/14 12:27:57;;;;;;;7.57;2.13;;;12.30;99.90;;;;;;5037996;28;20226;-49
2023/11/14 12:30:26;;;;;;;7.67;1.60;;;12.30;99.90;;;;;;5016389;28;20294;-42
2023/11/14 12:33:10;;;;;;;9.07;1.60;;;12.30;99.90;;;;;;5029123;28;20215;-42
2023/11/14 12:35:47;;;;;;;4.50;1.53;;;12.20;99.90;;;;;;5041830;28;20206;-47
2023/11/14 12:38:14;;;;;;;9.00;1.87;;;12.20;99.90;;;;;;5004701;28;20264;-42
2023/11/14 12:40:41;;;;;;;6.20;1.37;;;12.20;99.90;;;;;;5032377;28;20290;-47
2023/11/14 12:43:09;;;;;;;9.23;2.47;;;12.20;99.90;;;;;;5039237;28;20203;-41